Lomax, Illinois
Current Conditions -  °F | °C
As of 11:53 AM on Thursday 23 Oct 2014 (Local Time) from KBRL Reporting Station
Broken Clouds Broken Clouds  
Wind Chill: 56°   Ceiling: 11000
Heat Index: 56°   Visibility: 10mi
Dew Point: 45°   Wind: 15mph
Humidity: 67%   Direction: 200°SSW
Pressure: 30.12"   Gusts: 23mph
Location:  40.68°N, 91.07°W
Report Text: KBRL 231653Z AUTO 20013G20KT 10SM FEW049 SCT060 BKN110 13/07 A3012 RMK AO2 SLP201 T01330072
Loading
Personal Weather Stations






























Interactive Weather Map
Tropical Storm Tracking
New forecast layout! Learn more

10-Day Weather Forecast

Advertisements
Track Severe Weather on mobile